Time;durP1;ratioP1;P1;durP2;ratioP2;P2;SDS_P1;SDS_P2;PMS_P1;PMS_P2;Temp;Humidity;BMP_temperature;BMP_pressure;BME280_temperature;BME280_humidity;BME280_pressure;Samples;Min_cycle;Max_cycle;Signal;HPM_P1;HPM_P2
2023/08/10 00:02:18;;;;;;;4.57;4.00;;;24.80;99.90;;;;;;5050536;28;20378;-58
2023/08/10 00:04:45;;;;;;;4.95;4.20;;;24.80;99.90;;;;;;5050391;28;20047;-58
2023/08/10 00:07:10;;;;;;;4.45;3.97;;;24.70;99.90;;;;;;5050751;28;20025;-58
2023/08/10 00:09:36;;;;;;;4.80;3.97;;;24.80;99.90;;;;;;5050759;28;20025;-59
2023/08/10 00:12:02;;;;;;;4.97;4.00;;;24.60;99.90;;;;;;5050936;28;20024;-59
2023/08/10 00:14:28;;;;;;;4.75;3.88;;;24.60;99.90;;;;;;5050498;28;20458;-59
2023/08/10 00:16:53;;;;;;;5.13;3.58;;;24.50;99.90;;;;;;5050468;28;20114;-59
2023/08/10 00:19:19;;;;;;;4.82;3.90;;;24.40;99.90;;;;;;5050331;28;20033;-59
2023/08/10 00:21:45;;;;;;;4.75;3.85;;;24.30;99.90;;;;;;5050464;28;20101;-59
2023/08/10 00:24:11;;;;;;;6.47;4.18;;;24.20;99.90;;;;;;5050658;28;20044;-58
2023/08/10 00:26:37;;;;;;;4.18;3.78;;;24.10;99.90;;;;;;5050529;28;20037;-58
2023/08/10 00:29:03;;;;;;;4.63;3.80;;;24.00;99.90;;;;;;5050451;28;20112;-58
2023/08/10 00:31:29;;;;;;;5.85;4.38;;;23.90;99.90;;;;;;5050808;28;20037;-59
2023/08/10 00:33:55;;;;;;;8.05;3.85;;;23.80;99.90;;;;;;5050321;28;20082;-59
2023/08/10 00:36:20;;;;;;;5.20;4.45;;;23.90;99.90;;;;;;5050550;28;20466;-58
2023/08/10 00:38:46;;;;;;;4.65;4.20;;;23.90;99.90;;;;;;5053319;28;20481;-59
2023/08/10 00:41:12;;;;;;;5.53;4.47;;;23.90;99.90;;;;;;5054033;28;20040;-58
2023/08/10 00:43:40;;;;;;;5.60;4.50;;;23.80;99.90;;;;;;5054044;28;20025;-58
2023/08/10 00:46:07;;;;;;;4.72;4.15;;;23.80;99.90;;;;;;5054008;28;20048;-58
2023/08/10 00:48:33;;;;;;;6.25;4.78;;;23.80;99.90;;;;;;5053585;28;20021;-59
2023/08/10 00:50:59;;;;;;;4.80;4.40;;;23.80;99.90;;;;;;5053963;28;20492;-58
2023/08/10 00:53:25;;;;;;;4.93;4.47;;;23.70;99.90;;;;;;5053824;28;20025;-58
2023/08/10 00:55:53;;;;;;;7.65;4.40;;;23.80;99.90;;;;;;5054175;28;20021;-58
2023/08/10 00:58:21;;;;;;;5.72;4.32;;;23.90;99.90;;;;;;5053816;28;20044;-58
2023/08/10 01:00:47;;;;;;;5.32;4.65;;;23.90;99.90;;;;;;5053868;28;20025;-59
2023/08/10 01:03:13;;;;;;;5.13;4.63;;;23.90;99.90;;;;;;5052001;28;20032;-58
2023/08/10 01:05:50;;;;;;;4.90;4.40;;;23.90;99.90;;;;;;5053492;28;20044;-58
2023/08/10 01:08:28;;;;;;;5.28;4.45;;;23.90;99.90;;;;;;5053486;28;20032;-58
2023/08/10 01:11:06;;;;;;;5.50;4.40;;;23.80;99.90;;;;;;5053485;28;20042;-59
2023/08/10 01:13:45;;;;;;;5.32;4.60;;;23.80;99.90;;;;;;5053191;28;20029;-58
2023/08/10 01:16:11;;;;;;;5.10;4.60;;;23.80;99.90;;;;;;5053380;28;20490;-58
2023/08/10 01:18:39;;;;;;;7.45;4.80;;;23.70;99.90;;;;;;5052915;28;20045;-59
2023/08/10 01:21:22;;;;;;;4.75;4.28;;;23.70;99.90;;;;;;5053480;28;20021;-58
2023/08/10 01:23:50;;;;;;;5.03;4.53;;;23.80;99.90;;;;;;5053241;28;20029;-58
2023/08/10 01:26:16;;;;;;;6.13;5.28;;;23.80;99.90;;;;;;5053060;28;20080;-58
2023/08/10 01:28:42;;;;;;;5.13;4.63;;;23.80;99.90;;;;;;5052936;28;20029;-59
2023/08/10 01:31:08;;;;;;;6.13;5.15;;;23.80;99.90;;;;;;5053222;28;20033;-58
2023/08/10 01:33:35;;;;;;;5.75;5.20;;;23.70;99.90;;;;;;5051850;28;20025;-58
2023/08/10 01:36:01;;;;;;;6.15;4.90;;;23.60;99.90;;;;;;5053071;28;20021;-58
2023/08/10 01:38:26;;;;;;;9.75;4.60;;;23.60;99.90;;;;;;5053008;28;20504;-58
2023/08/10 01:40:52;;;;;;;5.43;4.80;;;23.50;99.90;;;;;;5052800;28;20028;-58
2023/08/10 01:43:17;;;;;;;8.77;5.10;;;23.50;99.90;;;;;;5052935;28;20024;-59
2023/08/10 01:45:49;;;;;;;7.00;4.63;;;23.50;99.90;;;;;;5052355;28;20061;-59
2023/08/10 01:48:33;;;;;;;6.50;4.88;;;23.50;99.90;;;;;;5052803;28;20017;-58
2023/08/10 01:51:03;;;;;;;8.40;5.30;;;23.40;99.90;;;;;;5052631;28;20029;-58
2023/08/10 01:53:32;;;;;;;10.55;5.15;;;23.40;99.90;;;;;;5052952;28;20079;-58
2023/08/10 01:55:58;;;;;;;11.32;4.90;;;23.50;99.90;;;;;;5052680;28;20494;-59
2023/08/10 01:58:24;;;;;;;11.13;5.25;;;23.50;99.90;;;;;;5052152;28;20028;-59
2023/08/10 02:00:51;;;;;;;10.32;5.22;;;23.60;99.90;;;;;;5052354;28;20490;-59
2023/08/10 02:03:17;;;;;;;13.75;5.53;;;23.50;99.90;;;;;;5052511;28;20112;-58
2023/08/10 02:05:43;;;;;;;11.75;4.65;;;23.50;99.90;;;;;;5052732;28;20035;-59
2023/08/10 02:08:09;;;;;;;13.20;5.63;;;23.50;99.90;;;;;;5052520;28;20108;-59
2023/08/10 02:10:35;;;;;;;18.83;5.95;;;23.50;99.90;;;;;;5052368;28;20031;-58
2023/08/10 02:13:00;;;;;;;18.70;6.10;;;23.40;99.90;;;;;;5052196;28;20029;-59
2023/08/10 02:15:26;;;;;;;20.42;5.60;;;23.50;99.90;;;;;;5051708;28;20071;-58
2023/08/10 02:17:52;;;;;;;22.10;6.40;;;23.70;99.90;;;;;;5052604;28;20370;-58
2023/08/10 02:20:18;;;;;;;20.63;5.68;;;23.80;99.90;;;;;;5052043;28;20025;-59
2023/08/10 02:22:51;;;;;;;19.42;6.57;;;23.90;99.90;;;;;;5052071;28;20115;-59
2023/08/10 02:25:18;;;;;;;19.65;6.30;;;23.90;99.90;;;;;;5052385;28;20041;-58
2023/08/10 02:27:44;;;;;;;25.65;6.80;;;23.90;99.90;;;;;;5051989;28;20104;-58
2023/08/10 02:30:11;;;;;;;17.88;5.80;;;23.90;99.90;;;;;;5051602;28;20021;-59
2023/08/10 02:32:37;;;;;;;20.15;6.55;;;24.00;99.90;;;;;;5051963;28;20186;-59
2023/08/10 02:35:06;;;;;;;18.98;6.30;;;23.90;99.90;;;;;;5051816;28;20131;-58
2023/08/10 02:37:32;;;;;;;21.17;6.32;;;24.00;99.90;;;;;;5052272;28;20032;-58
2023/08/10 02:39:58;;;;;;;23.60;6.28;;;23.90;99.90;;;;;;5051906;28;20393;-59
2023/08/10 02:42:24;;;;;;;20.10;5.97;;;24.00;99.90;;;;;;5051689;28;20032;-58
2023/08/10 02:44:51;;;;;;;20.45;6.18;;;23.80;99.90;;;;;;5051335;28;20059;-59
2023/08/10 02:47:17;;;;;;;24.30;6.47;;;23.80;99.90;;;;;;5051745;28;20108;-58
2023/08/10 02:49:43;;;;;;;21.65;6.30;;;23.80;99.90;;;;;;5051659;28;20103;-59
2023/08/10 02:52:09;;;;;;;23.65;6.78;;;23.70;99.90;;;;;;5051795;28;20028;-58
2023/08/10 02:54:35;;;;;;;23.05;6.90;;;23.60;99.90;;;;;;5051522;28;20424;-59
2023/08/10 02:57:01;;;;;;;20.30;6.00;;;23.50;99.90;;;;;;5051569;28;20029;-59
2023/08/10 02:59:27;;;;;;;22.90;6.80;;;23.30;99.90;;;;;;5050956;28;20032;-59
2023/08/10 03:01:53;;;;;;;24.42;6.70;;;23.30;99.90;;;;;;5051096;28;20048;-59
2023/08/10 03:04:18;;;;;;;23.80;6.10;;;23.20;99.90;;;;;;5051371;28;20555;-59
2023/08/10 03:06:44;;;;;;;24.00;6.30;;;23.10;99.90;;;;;;5051276;28;20124;-59
2023/08/10 03:09:10;;;;;;;20.75;6.65;;;23.10;99.90;;;;;;5051258;28;20051;-59
2023/08/10 03:11:37;;;;;;;21.85;5.78;;;23.20;99.90;;;;;;5051376;28;20033;-59
2023/08/10 03:14:02;;;;;;;20.65;6.35;;;23.10;99.90;;;;;;5050761;28;20505;-58
2023/08/10 03:16:29;;;;;;;20.00;5.32;;;23.10;99.90;;;;;;5051277;28;20025;-58
2023/08/10 03:18:56;;;;;;;24.48;6.13;;;23.10;99.90;;;;;;5051509;28;20021;-59
2023/08/10 03:21:22;;;;;;;19.20;5.65;;;23.00;99.90;;;;;;5051242;28;20013;-59
2023/08/10 03:23:48;;;;;;;20.25;5.60;;;23.00;99.90;;;;;;5051112;28;20033;-58
2023/08/10 03:26:13;;;;;;;23.63;6.22;;;23.10;99.90;;;;;;5050727;28;20053;-58
2023/08/10 03:28:39;;;;;;;17.67;5.15;;;23.00;99.90;;;;;;5051354;28;20092;-58
2023/08/10 03:31:05;;;;;;;20.70;5.95;;;22.90;99.90;;;;;;5051094;28;20398;-58
2023/08/10 03:33:30;;;;;;;17.48;5.60;;;23.00;99.90;;;;;;5051089;28;20479;-59
2023/08/10 03:35:56;;;;;;;19.42;5.85;;;23.20;99.90;;;;;;5051430;28;20480;-58
2023/08/10 03:38:22;;;;;;;19.73;5.50;;;23.20;99.90;;;;;;5051157;28;20022;-58
2023/08/10 03:40:47;;;;;;;21.13;5.75;;;23.40;99.90;;;;;;5050639;28;20406;-59
2023/08/10 03:43:13;;;;;;;19.92;5.53;;;23.40;99.90;;;;;;5050944;28;20029;-57
2023/08/10 03:45:39;;;;;;;17.88;5.22;;;23.30;99.90;;;;;;5050866;28;20033;-58
2023/08/10 03:48:05;;;;;;;19.25;5.65;;;23.40;99.90;;;;;;5051149;28;20039;-59
2023/08/10 03:50:30;;;;;;;19.02;5.20;;;23.40;99.90;;;;;;5051261;28;20528;-58
2023/08/10 03:52:56;;;;;;;18.25;5.10;;;23.30;99.90;;;;;;5050792;28;20043;-58
2023/08/10 03:55:22;;;;;;;17.15;4.97;;;23.30;99.90;;;;;;5050459;28;20021;-58
2023/08/10 03:57:48;;;;;;;14.10;4.80;;;23.40;99.90;;;;;;5050907;28;20043;-58
2023/08/10 04:00:14;;;;;;;18.20;4.80;;;23.30;99.90;;;;;;5050862;28;20455;-58
2023/08/10 04:02:40;;;;;;;15.43;4.88;;;23.30;99.90;;;;;;5050810;28;20072;-59
2023/08/10 04:05:06;;;;;;;18.15;5.40;;;23.30;99.90;;;;;;5051201;28;20060;-58
2023/08/10 04:07:37;;;;;;;19.90;5.50;;;23.30;99.90;;;;;;5050671;28;20557;-59
2023/08/10 04:10:06;;;;;;;17.05;5.07;;;23.30;99.90;;;;;;5050366;28;20028;-58
2023/08/10 04:12:36;;;;;;;20.20;5.60;;;23.20;99.90;;;;;;5052034;28;20029;-58
2023/08/10 04:15:03;;;;;;;18.20;5.55;;;23.00;99.90;;;;;;5054417;28;20108;-59
2023/08/10 04:17:28;;;;;;;18.13;5.43;;;22.90;99.90;;;;;;5054861;28;20128;-58
2023/08/10 04:19:56;;;;;;;19.80;5.28;;;22.80;99.90;;;;;;5054436;28;20067;-58
2023/08/10 04:22:22;;;;;;;17.05;4.78;;;22.70;99.90;;;;;;5054293;28;20025;-59
2023/08/10 04:24:47;;;;;;;19.02;5.70;;;22.70;99.90;;;;;;5054105;28;20053;-59
2023/08/10 04:27:13;;;;;;;19.42;5.90;;;22.60;99.90;;;;;;5054431;28;20040;-58
2023/08/10 04:29:43;;;;;;;17.98;4.80;;;22.70;99.90;;;;;;5054318;28;20035;-59
2023/08/10 04:32:08;;;;;;;17.52;4.88;;;22.60;99.90;;;;;;5054282;28;20040;-59
2023/08/10 04:34:34;;;;;;;18.13;5.20;;;22.60;99.90;;;;;;5053369;28;20017;-58
2023/08/10 04:37:00;;;;;;;17.73;5.25;;;22.50;99.90;;;;;;5054034;28;20289;-58
2023/08/10 04:39:27;;;;;;;16.75;5.65;;;22.50;99.90;;;;;;5053728;28;20055;-59
2023/08/10 04:41:52;;;;;;;19.85;5.38;;;22.50;99.90;;;;;;5054043;28;20021;-58
2023/08/10 04:44:18;;;;;;;20.77;5.97;;;22.50;99.90;;;;;;5054367;28;20032;-59
2023/08/10 04:46:44;;;;;;;18.15;5.20;;;22.50;99.90;;;;;;5053927;28;20037;-59
2023/08/10 04:49:10;;;;;;;18.50;5.68;;;22.50;99.90;;;;;;5054015;28;20021;-58
2023/08/10 04:51:36;;;;;;;16.88;5.75;;;22.50;99.90;;;;;;5053761;28;20087;-58
2023/08/10 04:54:02;;;;;;;18.77;5.75;;;22.60;99.90;;;;;;5053874;28;20425;-58
2023/08/10 04:56:27;;;;;;;21.35;5.70;;;22.70;99.90;;;;;;5053944;28;20056;-58
2023/08/10 04:58:53;;;;;;;21.88;5.80;;;22.80;99.90;;;;;;5053762;28;20044;-58
2023/08/10 05:01:19;;;;;;;19.13;5.93;;;22.90;99.90;;;;;;5053807;28;20028;-58
2023/08/10 05:03:45;;;;;;;22.02;5.60;;;22.90;99.90;;;;;;5054116;28;20055;-58
2023/08/10 05:06:11;;;;;;;18.45;5.35;;;23.00;99.90;;;;;;5053460;28;20041;-59
2023/08/10 05:08:36;;;;;;;19.52;5.25;;;22.90;99.90;;;;;;5053273;28;20187;-58
2023/08/10 05:11:02;;;;;;;19.42;5.80;;;23.10;99.90;;;;;;5053913;28;20033;-58
2023/08/10 05:13:28;;;;;;;20.20;5.13;;;23.10;99.90;;;;;;5053272;28;20100;-60
2023/08/10 05:15:53;;;;;;;18.10;5.18;;;23.00;99.90;;;;;;5053390;28;20106;-61
2023/08/10 05:18:21;;;;;;;20.35;5.82;;;23.00;99.90;;;;;;5053350;28;20021;-60
2023/08/10 05:20:47;;;;;;;19.85;5.78;;;23.10;99.90;;;;;;5033245;28;20132;-61
2023/08/10 05:23:13;;;;;;;18.42;5.40;;;23.00;99.90;;;;;;5032977;28;20101;-60
2023/08/10 05:25:39;;;;;;;17.05;5.50;;;23.00;99.90;;;;;;5032992;28;20068;-60
2023/08/10 05:28:05;;;;;;;16.55;5.20;;;23.00;99.90;;;;;;5033254;28;20048;-60
2023/08/10 05:30:31;;;;;;;17.33;5.72;;;22.80;99.90;;;;;;5033236;28;20530;-60
2023/08/10 05:32:56;;;;;;;21.65;5.68;;;22.70;99.90;;;;;;5033503;28;20056;-61
2023/08/10 05:35:22;;;;;;;18.30;5.88;;;22.50;99.90;;;;;;5033150;28;20104;-61
2023/08/10 05:37:48;;;;;;;18.27;5.85;;;22.50;99.90;;;;;;5032787;28;20112;-61
2023/08/10 05:40:13;;;;;;;17.38;5.50;;;22.50;99.90;;;;;;5032910;28;20036;-60
2023/08/10 05:42:41;;;;;;;18.95;5.60;;;22.50;99.90;;;;;;5033000;28;20048;-61
2023/08/10 05:45:08;;;;;;;16.75;5.28;;;22.50;99.90;;;;;;5033268;28;20506;-61
2023/08/10 05:47:34;;;;;;;22.40;5.88;;;22.50;99.90;;;;;;5033058;28;20483;-61
2023/08/10 05:50:00;;;;;;;22.63;5.78;;;22.40;99.90;;;;;;5032757;28;20099;-60
2023/08/10 05:52:26;;;;;;;23.23;6.07;;;22.40;99.90;;;;;;5032536;28;20562;-60
2023/08/10 05:54:52;;;;;;;21.60;6.28;;;22.40;99.90;;;;;;5033106;28;20049;-60
2023/08/10 05:57:19;;;;;;;22.55;6.15;;;22.30;99.90;;;;;;5032924;28;20025;-61
2023/08/10 05:59:44;;;;;;;22.02;5.90;;;22.30;99.90;;;;;;5032564;28;20398;-60
2023/08/10 06:02:10;;;;;;;20.38;6.03;;;22.30;99.90;;;;;;5032507;28;20101;-60
2023/08/10 06:04:36;;;;;;;24.55;6.18;;;22.30;99.90;;;;;;5032610;28;20026;-61
2023/08/10 06:07:02;;;;;;;21.30;6.72;;;22.40;99.90;;;;;;5032119;28;20040;-61
2023/08/10 06:09:28;;;;;;;20.50;5.85;;;22.40;99.90;;;;;;5032758;28;20033;-60
2023/08/10 06:11:54;;;;;;;23.00;5.70;;;22.50;99.90;;;;;;5032672;28;20107;-60
2023/08/10 06:14:20;;;;;;;21.45;6.03;;;22.60;99.90;;;;;;5040435;28;20477;-60
2023/08/10 06:16:46;;;;;;;25.17;6.65;;;22.80;99.90;;;;;;5052293;28;20078;-60
2023/08/10 06:19:12;;;;;;;23.23;6.60;;;22.70;99.90;;;;;;5052037;28;20086;-60
2023/08/10 06:21:37;;;;;;;23.38;5.85;;;22.80;99.90;;;;;;5050567;28;20025;-60
2023/08/10 06:24:06;;;;;;;18.58;5.82;;;23.00;99.90;;;;;;5052081;28;20027;-61
2023/08/10 06:26:33;;;;;;;18.92;5.93;;;23.10;99.90;;;;;;5052441;28;20112;-60
2023/08/10 06:29:00;;;;;;;18.50;5.55;;;23.10;99.90;;;;;;5052000;28;20401;-60
2023/08/10 06:31:26;;;;;;;21.80;5.97;;;23.20;99.90;;;;;;5051995;28;20082;-61
2023/08/10 06:33:51;;;;;;;16.98;5.15;;;23.20;99.90;;;;;;5051802;28;20433;-60
2023/08/10 06:36:17;;;;;;;20.25;5.88;;;23.20;99.90;;;;;;5049868;28;20029;-61
2023/08/10 06:38:43;;;;;;;18.48;5.55;;;23.30;99.90;;;;;;5051843;28;20027;-60
2023/08/10 06:41:08;;;;;;;20.70;5.43;;;23.20;99.90;;;;;;5051806;28;20490;-61
2023/08/10 06:43:34;;;;;;;21.55;6.22;;;23.10;99.90;;;;;;5051779;28;20414;-61
2023/08/10 06:46:00;;;;;;;21.08;5.70;;;23.20;99.90;;;;;;5052132;28;20386;-61
2023/08/10 06:48:25;;;;;;;16.23;5.18;;;23.10;99.90;;;;;;5051634;28;20539;-60
2023/08/10 06:50:51;;;;;;;18.10;4.70;;;23.10;99.90;;;;;;5051314;28;20029;-61
2023/08/10 06:53:17;;;;;;;18.27;4.93;;;23.10;99.90;;;;;;5052040;28;20538;-60
2023/08/10 06:55:44;;;;;;;11.35;4.72;;;22.90;99.90;;;;;;5051548;28;20580;-61
2023/08/10 06:58:12;;;;;;;13.50;5.38;;;22.90;99.90;;;;;;5051524;28;20095;-60
2023/08/10 07:00:38;;;;;;;17.38;4.93;;;23.00;99.90;;;;;;5051702;28;20029;-61
2023/08/10 07:03:06;;;;;;;15.45;4.55;;;23.00;99.90;;;;;;5051314;28;20025;-60
2023/08/10 07:05:38;;;;;;;16.70;4.75;;;23.00;99.90;;;;;;5051037;28;20040;-60
2023/08/10 07:08:04;;;;;;;18.98;4.90;;;23.20;99.90;;;;;;5051595;28;20028;-61
2023/08/10 07:10:30;;;;;;;16.17;5.18;;;23.10;99.90;;;;;;5051070;28;20028;-61
2023/08/10 07:12:55;;;;;;;14.68;4.50;;;23.20;99.90;;;;;;5051615;28;20025;-61
2023/08/10 07:15:21;;;;;;;13.25;4.32;;;23.10;99.90;;;;;;5051189;28;20021;-60
2023/08/10 07:17:47;;;;;;;14.80;4.72;;;23.10;99.90;;;;;;5051082;28;20025;-60
2023/08/10 07:20:18;;;;;;;15.55;4.45;;;23.20;99.90;;;;;;5050740;28;20517;-61
2023/08/10 07:22:45;;;;;;;14.77;4.53;;;23.20;99.90;;;;;;5051040;28;20083;-60
2023/08/10 07:25:12;;;;;;;15.68;4.93;;;23.20;99.90;;;;;;5051361;28;20079;-61
2023/08/10 07:27:37;;;;;;;19.38;5.15;;;23.20;99.90;;;;;;5051148;28;20090;-60
2023/08/10 07:30:03;;;;;;;14.57;4.13;;;23.30;99.90;;;;;;5050926;28;20025;-61
2023/08/10 07:32:30;;;;;;;11.85;4.22;;;23.50;99.90;;;;;;5051084;28;20028;-60
2023/08/10 07:34:56;;;;;;;16.35;5.03;;;23.70;99.90;;;;;;5051044;28;20021;-59
2023/08/10 07:37:22;;;;;;;13.27;4.82;;;23.90;99.90;;;;;;5051083;28;20033;-61
2023/08/10 07:39:48;;;;;;;17.25;4.65;;;24.20;99.90;;;;;;5051360;28;20028;-60
2023/08/10 07:42:13;;;;;;;14.48;4.80;;;24.00;99.90;;;;;;5050832;28;20440;-60
2023/08/10 07:44:39;;;;;;;13.95;4.07;;;24.10;99.90;;;;;;5051333;28;20028;-60
2023/08/10 07:47:05;;;;;;;15.48;4.22;;;23.90;99.90;;;;;;5053103;28;20098;-60
2023/08/10 07:49:31;;;;;;;11.38;3.88;;;23.90;99.90;;;;;;5054646;28;20021;-60
2023/08/10 07:51:58;;;;;;;13.38;4.70;;;23.80;99.90;;;;;;5055096;28;20455;-59
2023/08/10 07:54:25;;;;;;;14.45;4.43;;;23.80;99.90;;;;;;5054812;28;20159;-60
2023/08/10 07:56:51;;;;;;;15.43;4.50;;;23.80;99.90;;;;;;5055116;28;20028;-61
2023/08/10 07:59:17;;;;;;;14.45;4.80;;;23.80;99.90;;;;;;5055154;28;20028;-60
2023/08/10 08:01:43;;;;;;;18.88;5.13;;;23.70;99.90;;;;;;5054474;28;20029;-59
2023/08/10 08:04:09;;;;;;;16.98;5.10;;;23.80;99.90;;;;;;5054813;28;20532;-61
2023/08/10 08:06:36;;;;;;;17.33;5.03;;;23.80;99.90;;;;;;5054731;28;20045;-60
2023/08/10 08:09:04;;;;;;;18.38;4.70;;;23.70;99.90;;;;;;5055139;28;20116;-61
2023/08/10 08:11:30;;;;;;;17.90;5.47;;;23.60;99.90;;;;;;5054578;28;20029;-61
2023/08/10 08:13:56;;;;;;;15.63;5.25;;;23.50;99.90;;;;;;5054373;28;20027;-60
2023/08/10 08:16:21;;;;;;;18.25;4.63;;;23.30;99.90;;;;;;5052954;28;20025;-60
2023/08/10 08:18:55;;;;;;;15.23;4.55;;;23.30;99.90;;;;;;5054446;28;20029;-60
2023/08/10 08:21:26;;;;;;;14.30;4.53;;;23.20;99.90;;;;;;5054520;28;20025;-61
2023/08/10 08:23:53;;;;;;;14.05;4.35;;;23.30;99.90;;;;;;5054496;28;20028;-61
2023/08/10 08:26:20;;;;;;;16.27;4.18;;;23.30;99.90;;;;;;5054455;28;20425;-60
2023/08/10 08:28:47;;;;;;;11.05;3.95;;;23.40;99.90;;;;;;5053039;28;20107;-61
2023/08/10 08:31:13;;;;;;;13.50;4.15;;;23.40;99.90;;;;;;5053914;28;20402;-61
2023/08/10 08:33:39;;;;;;;15.80;5.03;;;23.40;99.90;;;;;;5054280;28;20498;-61
2023/08/10 08:36:06;;;;;;;14.30;4.22;;;23.30;99.90;;;;;;5054245;28;20490;-61
2023/08/10 08:38:32;;;;;;;17.35;4.68;;;23.40;99.90;;;;;;5054315;28;20108;-60
2023/08/10 08:41:03;;;;;;;18.52;4.53;;;23.40;99.90;;;;;;5054164;28;20132;-61
2023/08/10 08:43:29;;;;;;;18.75;5.10;;;23.30;99.90;;;;;;5054069;28;20047;-61
2023/08/10 08:45:57;;;;;;;13.32;4.47;;;23.30;99.90;;;;;;5054033;28;20498;-61
2023/08/10 08:48:23;;;;;;;17.42;4.50;;;23.50;99.90;;;;;;5054032;28;20029;-61
2023/08/10 08:50:50;;;;;;;17.23;4.35;;;23.60;99.90;;;;;;5053924;28;20021;-60
2023/08/10 08:53:16;;;;;;;17.30;5.05;;;23.80;99.90;;;;;;5053911;28;20017;-60
2023/08/10 08:55:42;;;;;;;13.65;4.28;;;24.00;99.90;;;;;;5053832;28;20440;-61
2023/08/10 08:58:08;;;;;;;12.68;4.20;;;24.20;99.90;;;;;;5052845;28;20028;-60
2023/08/10 09:00:35;;;;;;;15.35;4.40;;;24.20;99.90;;;;;;5053454;28;20025;-60
2023/08/10 09:03:01;;;;;;;13.27;4.15;;;24.10;99.90;;;;;;5053616;28;20044;-60
2023/08/10 09:05:28;;;;;;;14.15;4.50;;;24.30;99.90;;;;;;5053709;28;20041;-60
2023/08/10 09:07:54;;;;;;;17.27;4.45;;;24.40;99.90;;;;;;5052321;28;20051;-60
2023/08/10 09:10:23;;;;;;;14.85;4.70;;;24.30;99.90;;;;;;5053989;28;20025;-61
2023/08/10 09:12:49;;;;;;;16.48;5.10;;;24.40;99.90;;;;;;5053304;28;20045;-60
2023/08/10 09:15:19;;;;;;;18.80;5.03;;;24.40;99.90;;;;;;5053157;28;20480;-60
2023/08/10 09:17:46;;;;;;;19.70;5.63;;;24.50;99.90;;;;;;5053376;28;20532;-61
2023/08/10 09:20:23;;;;;;;18.83;4.93;;;24.40;99.90;;;;;;5053677;28;20086;-61
2023/08/10 09:22:51;;;;;;;16.50;4.72;;;24.60;99.90;;;;;;5053385;28;20044;-61
2023/08/10 09:25:17;;;;;;;16.98;5.00;;;24.60;99.90;;;;;;5053006;28;20079;-60
2023/08/10 09:27:44;;;;;;;13.35;5.00;;;24.50;99.90;;;;;;5053185;28;20394;-61
2023/08/10 09:30:10;;;;;;;12.93;4.60;;;24.30;99.90;;;;;;5052792;28;20021;-61
2023/08/10 09:32:39;;;;;;;11.75;4.68;;;24.20;99.90;;;;;;5053083;28;20398;-61
2023/08/10 09:35:05;;;;;;;12.43;4.60;;;24.10;99.90;;;;;;5053173;28;20203;-61
2023/08/10 09:37:31;;;;;;;18.75;5.22;;;24.00;99.90;;;;;;5053390;28;20063;-61
2023/08/10 09:40:08;;;;;;;13.43;4.85;;;24.00;99.90;;;;;;5053020;28;20024;-60
2023/08/10 09:42:34;;;;;;;14.13;4.82;;;24.00;99.90;;;;;;5052841;28;20025;-61
2023/08/10 09:45:10;;;;;;;15.32;5.60;;;24.00;99.90;;;;;;5052532;28;20021;-61
2023/08/10 09:47:38;;;;;;;16.92;5.90;;;24.00;99.90;;;;;;5052786;28;20021;-60
2023/08/10 09:50:06;;;;;;;16.52;5.32;;;24.00;99.90;;;;;;5052792;28;20029;-60
2023/08/10 09:52:36;;;;;;;16.33;5.32;;;24.10;99.90;;;;;;5053350;28;20037;-61
2023/08/10 09:55:03;;;;;;;15.40;5.88;;;24.00;99.90;;;;;;5052770;28;20104;-61
2023/08/10 09:57:28;;;;;;;15.15;5.38;;;23.90;99.90;;;;;;5052624;28;20025;-60
2023/08/10 09:59:55;;;;;;;14.82;5.40;;;24.00;99.90;;;;;;5052449;28;20119;-58
2023/08/10 10:02:22;;;;;;;20.17;5.75;;;24.00;99.90;;;;;;5052665;28;20025;-59
2023/08/10 10:04:48;;;;;;;18.13;6.00;;;24.10;99.90;;;;;;5052494;28;20075;-59
2023/08/10 10:07:21;;;;;;;16.80;5.40;;;24.00;99.90;;;;;;5052374;28;20098;-59
2023/08/10 10:09:47;;;;;;;18.25;6.00;;;24.30;99.90;;;;;;5052774;28;20079;-59
2023/08/10 10:12:14;;;;;;;20.38;5.80;;;24.50;99.90;;;;;;5051866;28;20409;-58
2023/08/10 10:14:45;;;;;;;16.67;5.65;;;24.60;99.90;;;;;;5052249;28;20025;-59
2023/08/10 10:17:18;;;;;;;13.70;5.20;;;24.70;99.90;;;;;;5052320;28;20159;-58
2023/08/10 10:19:45;;;;;;;;;;;24.80;99.90;;;;;;5052527;28;20111;-59
2023/08/10 10:22:11;;;;;;;19.58;6.15;;;25.00;99.90;;;;;;5052129;28;19912;-58
2023/08/10 10:24:41;;;;;;;17.13;6.10;;;25.10;99.90;;;;;;5052299;28;20044;-59
2023/08/10 10:27:09;;;;;;;16.80;5.75;;;25.10;99.90;;;;;;5051892;28;20037;-58
2023/08/10 10:29:40;;;;;;;18.65;6.13;;;25.00;99.90;;;;;;5052016;28;20021;-58
2023/08/10 10:32:11;;;;;;;17.55;5.93;;;25.00;99.90;;;;;;5051859;28;20478;-59
2023/08/10 10:34:37;;;;;;;16.20;5.50;;;25.10;99.90;;;;;;5051913;28;20025;-58
2023/08/10 10:37:28;;;;;;;18.88;6.15;;;25.10;99.90;;;;;;5051989;28;20060;-59
2023/08/10 10:40:19;;;;;;;20.23;6.10;;;25.10;99.90;;;;;;5052123;28;20065;-58
2023/08/10 10:43:03;;;;;;;19.65;5.68;;;25.20;99.90;;;;;;5051649;28;20485;-59
2023/08/10 10:45:36;;;;;;;16.13;5.68;;;25.10;99.90;;;;;;5051539;28;20033;-59
2023/08/10 10:48:02;;;;;;;15.13;5.30;;;25.10;99.90;;;;;;5051610;28;20053;-58
2023/08/10 10:50:29;;;;;;;18.08;6.03;;;24.80;99.90;;;;;;5052094;28;20025;-58
2023/08/10 10:53:04;;;;;;;18.52;6.20;;;24.60;99.90;;;;;;5051596;28;20075;-59
2023/08/10 10:55:33;;;;;;;16.58;6.15;;;24.60;99.90;;;;;;5051521;28;20547;-59
2023/08/10 10:58:03;;;;;;;17.27;5.65;;;24.70;99.90;;;;;;5051606;28;20021;-59
2023/08/10 11:00:30;;;;;;;17.88;6.13;;;24.60;99.90;;;;;;5051601;28;20025;-59
2023/08/10 11:02:56;;;;;;;21.67;6.03;;;24.60;99.90;;;;;;5051407;28;20497;-59
2023/08/10 11:05:22;;;;;;;18.98;6.30;;;24.40;99.90;;;;;;5051409;28;20398;-58
2023/08/10 11:07:50;;;;;;;19.40;6.07;;;24.40;99.90;;;;;;5051453;28;20036;-59
2023/08/10 11:10:19;;;;;;;15.68;5.70;;;24.50;99.90;;;;;;5051229;28;20407;-58
2023/08/10 11:12:48;;;;;;;24.33;6.30;;;24.60;99.90;;;;;;5051406;28;20055;-58
2023/08/10 11:15:17;;;;;;;20.88;5.85;;;24.60;99.90;;;;;;5051326;28;20512;-59
2023/08/10 11:17:49;;;;;;;18.23;6.18;;;24.60;99.90;;;;;;5051320;28;20048;-59
2023/08/10 11:20:17;;;;;;;22.73;6.57;;;24.70;99.90;;;;;;5051292;28;20029;-59
2023/08/10 11:22:43;;;;;;;24.23;6.60;;;24.70;99.90;;;;;;5050840;28;20562;-59
2023/08/10 11:25:11;;;;;;;19.83;6.13;;;24.70;99.90;;;;;;5050684;28;20579;-58
2023/08/10 11:27:44;;;;;;;17.05;5.80;;;24.70;99.90;;;;;;5051269;28;20029;-58
2023/08/10 11:30:13;;;;;;;22.13;6.40;;;24.90;99.90;;;;;;5051080;28;20107;-58
2023/08/10 11:32:40;;;;;;;21.13;6.53;;;25.10;99.90;;;;;;5049780;28;20036;-59
2023/08/10 11:35:07;;;;;;;20.95;6.50;;;25.20;99.90;;;;;;5051072;28;20559;-59
2023/08/10 11:37:34;;;;;;;18.98;6.13;;;25.30;99.90;;;;;;5050929;28;20049;-61
2023/08/10 11:40:15;;;;;;;19.73;5.95;;;25.50;99.90;;;;;;5050677;28;20482;-61
2023/08/10 11:42:48;;;;;;;19.85;6.13;;;25.30;99.90;;;;;;5050912;28;20031;-61
2023/08/10 11:45:23;;;;;;;20.55;6.20;;;25.30;99.90;;;;;;5050896;28;20589;-61
2023/08/10 11:47:51;;;;;;;19.63;6.43;;;25.40;99.90;;;;;;5051053;28;20040;-61
2023/08/10 11:50:18;;;;;;;22.08;6.90;;;25.60;99.90;;;;;;5051203;28;20512;-61
2023/08/10 11:52:44;;;;;;;25.90;7.97;;;25.40;99.90;;;;;;5050822;28;20045;-61
2023/08/10 11:55:16;;;;;;;19.52;5.97;;;25.60;99.90;;;;;;5050641;28;20029;-61
2023/08/10 11:57:44;;;;;;;20.02;6.47;;;25.60;99.90;;;;;;5050920;28;20029;-61
2023/08/10 12:00:25;;;;;;;20.65;6.22;;;25.60;99.90;;;;;;5050919;28;20025;-58
2023/08/10 12:03:12;;;;;;;19.67;6.13;;;25.70;99.90;;;;;;5051009;28;20078;-59
2023/08/10 12:05:49;;;;;;;19.83;6.97;;;25.50;99.90;;;;;;5050696;28;20068;-60
2023/08/10 12:08:26;;;;;;;21.17;5.78;;;25.30;99.90;;;;;;5050384;28;20146;-59
2023/08/10 12:11:12;;;;;;;21.42;6.53;;;25.10;99.90;;;;;;5051228;28;20021;-59
2023/08/10 12:13:45;;;;;;;23.27;7.03;;;25.20;99.90;;;;;;5050509;28;20528;-59
2023/08/10 12:16:11;;;;;;;;;;;25.10;99.90;;;;;;5051141;28;20021;-58
2023/08/10 12:18:37;;;;;;;23.30;6.63;;;25.30;99.90;;;;;;5050558;28;19930;-59
2023/08/10 12:21:03;;;;;;;23.92;7.03;;;25.40;99.90;;;;;;5050488;28;20056;-59
2023/08/10 12:23:29;;;;;;;17.77;6.10;;;25.40;99.90;;;;;;5050417;28;20065;-59
2023/08/10 12:25:54;;;;;;;19.40;5.82;;;25.40;99.90;;;;;;5050709;28;20056;-59
2023/08/10 12:28:20;;;;;;;21.25;6.97;;;25.50;99.90;;;;;;5050601;28;20029;-59
2023/08/10 12:30:48;;;;;;;20.67;6.18;;;25.40;99.90;;;;;;5050410;28;20078;-59
2023/08/10 12:33:14;;;;;;;20.00;5.93;;;25.40;99.90;;;;;;5051367;28;20029;-58
2023/08/10 12:35:40;;;;;;;21.02;6.38;;;25.60;99.90;;;;;;5054279;28;20032;-59
2023/08/10 12:38:06;;;;;;;25.23;6.35;;;25.40;99.90;;;;;;5053950;28;20044;-59
2023/08/10 12:40:33;;;;;;;20.88;5.57;;;25.40;99.90;;;;;;5054190;28;20127;-59